sensor_id;sensor_type;location;lat;lon;timestamp;P1;P2;P0
68841;PMS5003;55849;48.482;2.332;2022-12-24T00:03:02;8.00;5.75;3.00
68841;PMS5003;55849;48.482;2.332;2022-12-24T00:06:04;5.50;5.00;3.00
68841;PMS5003;55849;48.482;2.332;2022-12-24T00:09:11;18.75;6.25;3.00
68841;PMS5003;55849;48.482;2.332;2022-12-24T00:12:16;7.00;5.75;3.00
68841;PMS5003;55849;48.482;2.332;2022-12-24T00:15:18;46.50;35.00;22.75
68841;PMS5003;55849;48.482;2.332;2022-12-24T00:18:20;9.00;6.50;2.50
68841;PMS5003;55849;48.482;2.332;2022-12-24T00:21:23;5.25;4.75;3.00
68841;PMS5003;55849;48.482;2.332;2022-12-24T00:24:28;7.75;5.25;4.00
68841;PMS5003;55849;48.482;2.332;2022-12-24T00:27:30;25.75;19.50;11.25
68841;PMS5003;55849;48.482;2.332;2022-12-24T00:30:38;6.75;5.25;2.75
68841;PMS5003;55849;48.482;2.332;2022-12-24T00:33:48;9.50;6.25;3.00
68841;PMS5003;55849;48.482;2.332;2022-12-24T00:36:50;13.00;10.25;6.00
68841;PMS5003;55849;48.482;2.332;2022-12-24T00:39:54;6.75;6.75;4.00
68841;PMS5003;55849;48.482;2.332;2022-12-24T00:42:58;11.50;5.75;2.75
68841;PMS5003;55849;48.482;2.332;2022-12-24T00:46:00;9.50;5.75;3.25
68841;PMS5003;55849;48.482;2.332;2022-12-24T00:49:03;9.50;6.00;3.00
68841;PMS5003;55849;48.482;2.332;2022-12-24T00:52:05;14.50;6.75;3.00
68841;PMS5003;55849;48.482;2.332;2022-12-24T00:55:14;9.50;8.25;5.50
68841;PMS5003;55849;48.482;2.332;2022-12-24T00:58:17;8.00;5.00;3.00
68841;PMS5003;55849;48.482;2.332;2022-12-24T01:01:20;12.25;7.25;3.00
68841;PMS5003;55849;48.482;2.332;2022-12-24T01:04:22;8.75;3.75;2.00
68841;PMS5003;55849;48.482;2.332;2022-12-24T01:07:42;7.00;5.00;2.00
68841;PMS5003;55849;48.482;2.332;2022-12-24T01:10:48;11.25;6.00;2.50
68841;PMS5003;55849;48.482;2.332;2022-12-24T01:13:55;10.50;5.00;3.50
68841;PMS5003;55849;48.482;2.332;2022-12-24T01:16:57;10.00;5.00;3.00
68841;PMS5003;55849;48.482;2.332;2022-12-24T01:20:07;9.00;5.00;2.00
68841;PMS5003;55849;48.482;2.332;2022-12-24T01:23:16;10.25;7.75;3.00
68841;PMS5003;55849;48.482;2.332;2022-12-24T01:26:28;7.50;6.00;3.00
68841;PMS5003;55849;48.482;2.332;2022-12-24T01:29:30;8.25;5.25;4.00
68841;PMS5003;55849;48.482;2.332;2022-12-24T01:32:32;9.25;5.25;3.00
68841;PMS5003;55849;48.482;2.332;2022-12-24T01:35:38;4.00;4.00;2.75
68841;PMS5003;55849;48.482;2.332;2022-12-24T01:38:40;7.00;4.25;2.25
68841;PMS5003;55849;48.482;2.332;2022-12-24T01:41:44;11.50;6.50;3.00
68841;PMS5003;55849;48.482;2.332;2022-12-24T01:48:44;7.50;4.25;2.25
68841;PMS5003;55849;48.482;2.332;2022-12-24T01:51:53;9.00;5.75;3.75
68841;PMS5003;55849;48.482;2.332;2022-12-24T01:54:59;6.50;4.75;3.00
68841;PMS5003;55849;48.482;2.332;2022-12-24T01:58:07;5.75;4.75;2.75
68841;PMS5003;55849;48.482;2.332;2022-12-24T02:01:11;8.00;6.50;4.00
68841;PMS5003;55849;48.482;2.332;2022-12-24T02:04:15;10.50;6.50;4.00
68841;PMS5003;55849;48.482;2.332;2022-12-24T02:07:24;11.25;5.00;2.00
68841;PMS5003;55849;48.482;2.332;2022-12-24T02:10:28;9.00;5.25;2.75
68841;PMS5003;55849;48.482;2.332;2022-12-24T02:13:32;12.50;6.00;3.00
68841;PMS5003;55849;48.482;2.332;2022-12-24T02:16:37;7.75;4.50;3.00
68841;PMS5003;55849;48.482;2.332;2022-12-24T02:20:01;8.75;8.75;3.25
68841;PMS5003;55849;48.482;2.332;2022-12-24T02:23:25;11.00;5.25;2.00
68841;PMS5003;55849;48.482;2.332;2022-12-24T02:26:56;6.00;5.00;2.00
68841;PMS5003;55849;48.482;2.332;2022-12-24T02:30:14;9.75;6.50;3.00
68841;PMS5003;55849;48.482;2.332;2022-12-24T02:33:19;8.00;5.25;2.00
68841;PMS5003;55849;48.482;2.332;2022-12-24T02:36:28;8.25;6.00;3.00
68841;PMS5003;55849;48.482;2.332;2022-12-24T02:39:36;10.25;7.25;1.75
68841;PMS5003;55849;48.482;2.332;2022-12-24T02:42:44;7.75;6.50;3.25
68841;PMS5003;55849;48.482;2.332;2022-12-24T02:45:53;9.00;7.00;2.25
68841;PMS5003;55849;48.482;2.332;2022-12-24T02:48:58;8.75;5.75;3.00
68841;PMS5003;55849;48.482;2.332;2022-12-24T02:52:00;5.25;5.25;2.25
68841;PMS5003;55849;48.482;2.332;2022-12-24T02:55:04;7.50;5.75;3.00
68841;PMS5003;55849;48.482;2.332;2022-12-24T02:58:13;10.25;5.25;2.00
68841;PMS5003;55849;48.482;2.332;2022-12-24T03:01:30;7.00;5.00;3.25
68841;PMS5003;55849;48.482;2.332;2022-12-24T03:04:40;6.25;4.50;3.00
68841;PMS5003;55849;48.482;2.332;2022-12-24T03:07:51;7.00;5.50;2.00
68841;PMS5003;55849;48.482;2.332;2022-12-24T03:11:02;8.75;6.50;3.00
68841;PMS5003;55849;48.482;2.332;2022-12-24T03:14:09;8.00;5.00;3.00
68841;PMS5003;55849;48.482;2.332;2022-12-24T03:17:14;9.25;4.00;1.50
68841;PMS5003;55849;48.482;2.332;2022-12-24T03:20:18;8.25;5.00;2.50
68841;PMS5003;55849;48.482;2.332;2022-12-24T03:23:23;11.00;6.00;2.25
68841;PMS5003;55849;48.482;2.332;2022-12-24T03:26:26;10.25;6.00;3.00
68841;PMS5003;55849;48.482;2.332;2022-12-24T03:29:31;5.00;4.00;2.00
68841;PMS5003;55849;48.482;2.332;2022-12-24T03:32:35;10.50;6.50;3.00
68841;PMS5003;55849;48.482;2.332;2022-12-24T03:35:36;7.00;3.50;2.50
68841;PMS5003;55849;48.482;2.332;2022-12-24T03:38:39;7.50;5.00;2.00
68841;PMS5003;55849;48.482;2.332;2022-12-24T03:41:41;10.50;7.00;3.00
68841;PMS5003;55849;48.482;2.332;2022-12-24T03:44:43;6.50;5.50;2.00
68841;PMS5003;55849;48.482;2.332;2022-12-24T03:47:46;6.75;5.75;3.00
68841;PMS5003;55849;48.482;2.332;2022-12-24T03:50:48;7.00;5.25;2.25
68841;PMS5003;55849;48.482;2.332;2022-12-24T03:53:51;9.00;3.00;2.25
68841;PMS5003;55849;48.482;2.332;2022-12-24T03:56:53;6.25;5.25;4.00
68841;PMS5003;55849;48.482;2.332;2022-12-24T03:59:55;3.50;2.00;0.75
68841;PMS5003;55849;48.482;2.332;2022-12-24T04:02:59;9.00;6.00;3.00
68841;PMS5003;55849;48.482;2.332;2022-12-24T04:06:01;8.25;6.75;3.50
68841;PMS5003;55849;48.482;2.332;2022-12-24T04:09:04;8.00;4.00;2.00
68841;PMS5003;55849;48.482;2.332;2022-12-24T04:12:06;8.25;5.00;2.50
68841;PMS5003;55849;48.482;2.332;2022-12-24T04:15:08;13.75;6.75;3.25
68841;PMS5003;55849;48.482;2.332;2022-12-24T04:18:12;5.25;5.25;3.75
68841;PMS5003;55849;48.482;2.332;2022-12-24T04:21:14;9.75;4.00;2.00
68841;PMS5003;55849;48.482;2.332;2022-12-24T04:24:16;14.00;5.75;3.25
68841;PMS5003;55849;48.482;2.332;2022-12-24T04:27:17;9.75;6.00;3.00
68841;PMS5003;55849;48.482;2.332;2022-12-24T04:30:19;6.00;5.00;2.50
68841;PMS5003;55849;48.482;2.332;2022-12-24T04:33:22;8.25;5.00;3.00
68841;PMS5003;55849;48.482;2.332;2022-12-24T04:36:24;8.75;6.75;3.00
68841;PMS5003;55849;48.482;2.332;2022-12-24T04:39:26;7.00;4.50;2.75
68841;PMS5003;55849;48.482;2.332;2022-12-24T04:42:28;5.00;5.00;3.00
68841;PMS5003;55849;48.482;2.332;2022-12-24T04:45:30;8.50;7.00;4.00
68841;PMS5003;55849;48.482;2.332;2022-12-24T04:48:33;7.25;5.00;1.75
68841;PMS5003;55849;48.482;2.332;2022-12-24T04:51:35;9.75;5.75;3.25
68841;PMS5003;55849;48.482;2.332;2022-12-24T04:54:37;6.50;5.00;2.75
68841;PMS5003;55849;48.482;2.332;2022-12-24T04:57:39;10.75;9.75;4.75
68841;PMS5003;55849;48.482;2.332;2022-12-24T05:00:41;6.75;6.50;3.00
68841;PMS5003;55849;48.482;2.332;2022-12-24T05:03:44;5.25;4.75;2.00
68841;PMS5003;55849;48.482;2.332;2022-12-24T05:06:46;6.50;5.75;4.00
68841;PMS5003;55849;48.482;2.332;2022-12-24T05:09:48;6.50;4.25;2.25
68841;PMS5003;55849;48.482;2.332;2022-12-24T05:12:50;8.00;5.50;2.75
68841;PMS5003;55849;48.482;2.332;2022-12-24T05:15:52;5.75;3.25;1.50
68841;PMS5003;55849;48.482;2.332;2022-12-24T05:18:55;7.50;3.75;3.00
68841;PMS5003;55849;48.482;2.332;2022-12-24T05:21:57;5.50;4.75;2.50
68841;PMS5003;55849;48.482;2.332;2022-12-24T05:25:16;14.50;13.00;7.75
68841;PMS5003;55849;48.482;2.332;2022-12-24T05:28:35;5.75;4.50;2.00
68841;PMS5003;55849;48.482;2.332;2022-12-24T05:31:37;11.00;6.00;4.00
68841;PMS5003;55849;48.482;2.332;2022-12-24T05:34:41;5.75;4.75;2.00
68841;PMS5003;55849;48.482;2.332;2022-12-24T05:37:42;6.25;5.75;3.00
68841;PMS5003;55849;48.482;2.332;2022-12-24T05:40:45;9.50;6.75;3.00
68841;PMS5003;55849;48.482;2.332;2022-12-24T05:43:47;7.75;5.75;3.50
68841;PMS5003;55849;48.482;2.332;2022-12-24T05:46:49;7.25;5.00;4.00
68841;PMS5003;55849;48.482;2.332;2022-12-24T05:49:53;12.50;11.00;6.75
68841;PMS5003;55849;48.482;2.332;2022-12-24T05:52:55;9.50;6.00;3.50
68841;PMS5003;55849;48.482;2.332;2022-12-24T05:56:01;12.50;8.00;6.00
68841;PMS5003;55849;48.482;2.332;2022-12-24T05:59:03;6.50;4.00;2.25
68841;PMS5003;55849;48.482;2.332;2022-12-24T06:02:05;3.00;3.00;2.00
68841;PMS5003;55849;48.482;2.332;2022-12-24T06:05:08;6.00;3.25;2.50
68841;PMS5003;55849;48.482;2.332;2022-12-24T06:08:10;9.00;6.00;4.00
68841;PMS5003;55849;48.482;2.332;2022-12-24T06:11:12;9.75;7.00;4.00
68841;PMS5003;55849;48.482;2.332;2022-12-24T06:14:17;14.00;11.25;6.25
68841;PMS5003;55849;48.482;2.332;2022-12-24T06:17:19;14.00;11.75;6.50
68841;PMS5003;55849;48.482;2.332;2022-12-24T06:20:22;9.50;7.00;5.00
68841;PMS5003;55849;48.482;2.332;2022-12-24T06:23:24;11.25;10.00;7.25
68841;PMS5003;55849;48.482;2.332;2022-12-24T06:26:26;13.00;8.00;6.00
68841;PMS5003;55849;48.482;2.332;2022-12-24T06:29:28;5.75;5.25;4.00
68841;PMS5003;55849;48.482;2.332;2022-12-24T06:32:30;6.50;3.75;2.50
68841;PMS5003;55849;48.482;2.332;2022-12-24T06:35:33;2.50;2.50;1.50
68841;PMS5003;55849;48.482;2.332;2022-12-24T06:38:35;2.00;1.25;1.00
68841;PMS5003;55849;48.482;2.332;2022-12-24T06:41:37;4.50;2.75;1.75
68841;PMS5003;55849;48.482;2.332;2022-12-24T06:44:38;3.50;2.00;1.00
68841;PMS5003;55849;48.482;2.332;2022-12-24T06:47:40;7.75;4.00;2.25
68841;PMS5003;55849;48.482;2.332;2022-12-24T06:50:43;1.50;1.50;1.00
68841;PMS5003;55849;48.482;2.332;2022-12-24T06:53:45;9.25;8.00;6.25
68841;PMS5003;55849;48.482;2.332;2022-12-24T06:56:49;13.00;9.75;7.25
68841;PMS5003;55849;48.482;2.332;2022-12-24T06:59:51;5.00;3.75;2.75
68841;PMS5003;55849;48.482;2.332;2022-12-24T07:02:53;7.50;6.00;3.50
68841;PMS5003;55849;48.482;2.332;2022-12-24T07:05:56;2.75;2.00;1.75
68841;PMS5003;55849;48.482;2.332;2022-12-24T07:08:58;10.25;9.25;6.00
68841;PMS5003;55849;48.482;2.332;2022-12-24T07:12:00;4.25;3.00;2.00
68841;PMS5003;55849;48.482;2.332;2022-12-24T07:15:02;9.25;5.75;3.50
68841;PMS5003;55849;48.482;2.332;2022-12-24T07:18:04;4.75;3.75;2.00
68841;PMS5003;55849;48.482;2.332;2022-12-24T07:21:07;3.00;1.00;0.75
68841;PMS5003;55849;48.482;2.332;2022-12-24T07:24:09;1.75;1.75;1.00
68841;PMS5003;55849;48.482;2.332;2022-12-24T07:27:11;3.00;2.50;1.00
68841;PMS5003;55849;48.482;2.332;2022-12-24T07:30:13;6.00;5.25;3.00
68841;PMS5003;55849;48.482;2.332;2022-12-24T07:33:15;8.75;6.50;4.25
68841;PMS5003;55849;48.482;2.332;2022-12-24T07:36:19;2.00;2.00;1.00
68841;PMS5003;55849;48.482;2.332;2022-12-24T07:39:22;5.00;3.50;2.75
68841;PMS5003;55849;48.482;2.332;2022-12-24T07:42:23;2.50;2.50;1.00
68841;PMS5003;55849;48.482;2.332;2022-12-24T07:45:25;5.00;4.00;2.00
68841;PMS5003;55849;48.482;2.332;2022-12-24T07:48:28;1.50;1.50;1.00
68841;PMS5003;55849;48.482;2.332;2022-12-24T07:51:32;4.00;2.75;1.00
68841;PMS5003;55849;48.482;2.332;2022-12-24T07:54:33;1.75;0.50;0.00
68841;PMS5003;55849;48.482;2.332;2022-12-24T07:57:35;4.00;1.75;1.00
68841;PMS5003;55849;48.482;2.332;2022-12-24T08:00:37;2.25;2.25;1.25
68841;PMS5003;55849;48.482;2.332;2022-12-24T08:03:39;3.25;2.00;2.00
68841;PMS5003;55849;48.482;2.332;2022-12-24T08:06:42;3.25;2.00;1.00
68841;PMS5003;55849;48.482;2.332;2022-12-24T08:09:43;4.25;2.75;2.00
68841;PMS5003;55849;48.482;2.332;2022-12-24T08:12:45;5.00;5.00;3.50
68841;PMS5003;55849;48.482;2.332;2022-12-24T08:15:47;2.75;2.75;0.75
68841;PMS5003;55849;48.482;2.332;2022-12-24T08:18:49;2.25;2.00;1.00
68841;PMS5003;55849;48.482;2.332;2022-12-24T08:21:52;8.25;2.00;1.00
68841;PMS5003;55849;48.482;2.332;2022-12-24T08:24:53;4.00;4.00;2.75
68841;PMS5003;55849;48.482;2.332;2022-12-24T08:27:55;2.00;2.00;1.25
68841;PMS5003;55849;48.482;2.332;2022-12-24T08:30:57;5.00;4.00;2.00
68841;PMS5003;55849;48.482;2.332;2022-12-24T08:33:59;5.00;3.00;2.00
68841;PMS5003;55849;48.482;2.332;2022-12-24T08:37:04;2.00;2.00;1.00
68841;PMS5003;55849;48.482;2.332;2022-12-24T08:40:06;6.00;4.25;3.00
68841;PMS5003;55849;48.482;2.332;2022-12-24T08:43:09;5.25;3.25;1.00
68841;PMS5003;55849;48.482;2.332;2022-12-24T08:46:10;1.00;1.00;0.75
68841;PMS5003;55849;48.482;2.332;2022-12-24T08:49:12;4.25;4.00;2.00
68841;PMS5003;55849;48.482;2.332;2022-12-24T08:52:15;3.25;2.00;1.00
68841;PMS5003;55849;48.482;2.332;2022-12-24T08:55:17;2.75;2.00;1.00
68841;PMS5003;55849;48.482;2.332;2022-12-24T08:58:19;5.25;3.00;1.75
68841;PMS5003;55849;48.482;2.332;2022-12-24T09:01:20;6.75;6.75;4.00
68841;PMS5003;55849;48.482;2.332;2022-12-24T09:04:22;6.75;5.00;3.00
68841;PMS5003;55849;48.482;2.332;2022-12-24T09:07:25;10.25;6.00;3.00
68841;PMS5003;55849;48.482;2.332;2022-12-24T09:10:30;8.25;6.25;4.00
68841;PMS5003;55849;48.482;2.332;2022-12-24T09:13:32;8.00;8.00;5.00
68841;PMS5003;55849;48.482;2.332;2022-12-24T09:16:33;8.00;8.00;4.75
68841;PMS5003;55849;48.482;2.332;2022-12-24T09:19:35;8.25;7.50;5.00
68841;PMS5003;55849;48.482;2.332;2022-12-24T09:22:38;4.25;4.25;3.75
68841;PMS5003;55849;48.482;2.332;2022-12-24T09:25:40;9.00;8.25;5.00
68841;PMS5003;55849;48.482;2.332;2022-12-24T09:28:42;8.25;6.75;3.75
68841;PMS5003;55849;48.482;2.332;2022-12-24T09:31:44;8.00;6.25;3.00
68841;PMS5003;55849;48.482;2.332;2022-12-24T09:34:46;6.25;6.00;3.00
68841;PMS5003;55849;48.482;2.332;2022-12-24T09:37:49;10.50;8.25;4.00
68841;PMS5003;55849;48.482;2.332;2022-12-24T09:41:09;6.75;5.00;3.00
68841;PMS5003;55849;48.482;2.332;2022-12-24T09:44:17;1.75;1.75;1.00
68841;PMS5003;55849;48.482;2.332;2022-12-24T09:47:32;4.50;4.00;2.00
68841;PMS5003;55849;48.482;2.332;2022-12-24T09:50:39;4.00;3.50;2.50
68841;PMS5003;55849;48.482;2.332;2022-12-24T09:53:46;3.75;2.00;1.75
68841;PMS5003;55849;48.482;2.332;2022-12-24T09:56:53;5.00;4.00;3.25
68841;PMS5003;55849;48.482;2.332;2022-12-24T09:59:57;4.75;4.75;3.75
68841;PMS5003;55849;48.482;2.332;2022-12-24T10:02:59;9.75;5.75;4.00
68841;PMS5003;55849;48.482;2.332;2022-12-24T10:06:03;4.00;2.00;2.00
68841;PMS5003;55849;48.482;2.332;2022-12-24T10:09:11;6.50;5.50;4.00
68841;PMS5003;55849;48.482;2.332;2022-12-24T10:12:21;12.25;7.50;6.00
68841;PMS5003;55849;48.482;2.332;2022-12-24T10:15:32;12.50;7.75;6.00
68841;PMS5003;55849;48.482;2.332;2022-12-24T10:18:41;5.50;5.00;3.00
68841;PMS5003;55849;48.482;2.332;2022-12-24T10:21:52;8.25;7.50;6.00
68841;PMS5003;55849;48.482;2.332;2022-12-24T10:25:10;11.25;10.50;7.25
68841;PMS5003;55849;48.482;2.332;2022-12-24T10:28:18;15.50;14.50;10.75
68841;PMS5003;55849;48.482;2.332;2022-12-24T10:31:25;17.75;16.25;10.50
68841;PMS5003;55849;48.482;2.332;2022-12-24T10:34:32;5.75;5.75;3.75
68841;PMS5003;55849;48.482;2.332;2022-12-24T10:37:38;15.75;13.50;7.50
68841;PMS5003;55849;48.482;2.332;2022-12-24T10:40:43;19.50;16.50;10.00
68841;PMS5003;55849;48.482;2.332;2022-12-24T10:43:47;6.00;3.75;2.25
68841;PMS5003;55849;48.482;2.332;2022-12-24T10:46:49;8.50;5.75;3.50
68841;PMS5003;55849;48.482;2.332;2022-12-24T10:49:52;20.50;16.25;10.75
68841;PMS5003;55849;48.482;2.332;2022-12-24T10:53:03;3.00;3.00;2.00
68841;PMS5003;55849;48.482;2.332;2022-12-24T10:56:17;12.50;9.50;5.00
68841;PMS5003;55849;48.482;2.332;2022-12-24T10:59:24;4.25;4.25;2.25
68841;PMS5003;55849;48.482;2.332;2022-12-24T11:02:28;10.00;8.00;6.00
68841;PMS5003;55849;48.482;2.332;2022-12-24T11:05:32;4.00;4.00;3.00
68841;PMS5003;55849;48.482;2.332;2022-12-24T11:08:36;9.25;9.25;6.00
68841;PMS5003;55849;48.482;2.332;2022-12-24T11:11:40;10.00;9.75;7.00
68841;PMS5003;55849;48.482;2.332;2022-12-24T11:14:42;28.50;20.00;13.75
68841;PMS5003;55849;48.482;2.332;2022-12-24T11:17:51;10.00;8.50;6.00
68841;PMS5003;55849;48.482;2.332;2022-12-24T11:20:54;9.75;7.00;5.25
68841;PMS5003;55849;48.482;2.332;2022-12-24T11:23:59;12.25;10.75;8.00
68841;PMS5003;55849;48.482;2.332;2022-12-24T11:27:27;10.75;10.50;8.25
68841;PMS5003;55849;48.482;2.332;2022-12-24T11:30:31;3.00;3.00;2.00
68841;PMS5003;55849;48.482;2.332;2022-12-24T11:33:44;10.25;7.50;5.75
68841;PMS5003;55849;48.482;2.332;2022-12-24T11:36:47;11.25;9.75;7.00
68841;PMS5003;55849;48.482;2.332;2022-12-24T11:39:49;11.25;11.25;8.00
68841;PMS5003;55849;48.482;2.332;2022-12-24T11:42:54;21.75;18.75;13.00
68841;PMS5003;55849;48.482;2.332;2022-12-24T11:46:11;17.50;15.75;11.75
68841;PMS5003;55849;48.482;2.332;2022-12-24T11:49:24;28.50;21.25;14.50
68841;PMS5003;55849;48.482;2.332;2022-12-24T11:52:28;33.25;28.00;16.75
68841;PMS5003;55849;48.482;2.332;2022-12-24T11:55:40;23.50;22.50;16.00
68841;PMS5003;55849;48.482;2.332;2022-12-24T11:58:46;46.00;37.50;23.00
68841;PMS5003;55849;48.482;2.332;2022-12-24T12:01:53;29.25;24.00;14.50
68841;PMS5003;55849;48.482;2.332;2022-12-24T12:04:59;34.25;29.25;19.00
68841;PMS5003;55849;48.482;2.332;2022-12-24T12:08:07;19.75;15.00;9.00
68841;PMS5003;55849;48.482;2.332;2022-12-24T12:11:15;12.00;9.00;6.00
68841;PMS5003;55849;48.482;2.332;2022-12-24T12:14:19;17.50;14.50;10.50
68841;PMS5003;55849;48.482;2.332;2022-12-24T12:17:31;15.00;12.00;9.00
68841;PMS5003;55849;48.482;2.332;2022-12-24T12:20:37;8.25;8.00;6.00
68841;PMS5003;55849;48.482;2.332;2022-12-24T12:23:42;10.75;8.00;6.00
68841;PMS5003;55849;48.482;2.332;2022-12-24T12:26:48;9.50;8.75;8.00
68841;PMS5003;55849;48.482;2.332;2022-12-24T12:30:04;8.75;8.75;6.00
68841;PMS5003;55849;48.482;2.332;2022-12-24T12:33:12;7.75;7.00;5.00
68841;PMS5003;55849;48.482;2.332;2022-12-24T12:36:20;93.75;83.75;50.25
68841;PMS5003;55849;48.482;2.332;2022-12-24T12:39:26;3.75;3.00;2.00
68841;PMS5003;55849;48.482;2.332;2022-12-24T12:42:31;5.00;4.25;2.00
68841;PMS5003;55849;48.482;2.332;2022-12-24T12:45:38;71.00;55.25;37.00
68841;PMS5003;55849;48.482;2.332;2022-12-24T12:48:54;11.00;11.00;8.50
68841;PMS5003;55849;48.482;2.332;2022-12-24T12:52:10;8.25;7.25;5.25
68841;PMS5003;55849;48.482;2.332;2022-12-24T12:55:26;22.00;17.50;11.00
68841;PMS5003;55849;48.482;2.332;2022-12-24T12:58:38;44.75;31.25;18.75
68841;PMS5003;55849;48.482;2.332;2022-12-24T13:01:46;21.75;18.00;12.25
68841;PMS5003;55849;48.482;2.332;2022-12-24T13:05:01;25.75;25.25;17.25
68841;PMS5003;55849;48.482;2.332;2022-12-24T13:08:30;13.00;10.25;8.25
68841;PMS5003;55849;48.482;2.332;2022-12-24T13:11:49;9.00;6.75;5.75
68841;PMS5003;55849;48.482;2.332;2022-12-24T13:15:18;20.50;14.50;11.00
68841;PMS5003;55849;48.482;2.332;2022-12-24T13:22:12;26.75;25.00;19.00
68841;PMS5003;55849;48.482;2.332;2022-12-24T13:25:19;26.75;24.00;16.25
68841;PMS5003;55849;48.482;2.332;2022-12-24T13:28:33;10.00;10.00;7.25
68841;PMS5003;55849;48.482;2.332;2022-12-24T13:31:36;19.00;18.00;13.25
68841;PMS5003;55849;48.482;2.332;2022-12-24T13:34:39;16.00;13.50;9.25
68841;PMS5003;55849;48.482;2.332;2022-12-24T13:37:49;21.50;17.75;13.00
68841;PMS5003;55849;48.482;2.332;2022-12-24T13:40:51;8.75;8.25;6.25
68841;PMS5003;55849;48.482;2.332;2022-12-24T13:44:02;15.75;14.50;10.00
68841;PMS5003;55849;48.482;2.332;2022-12-24T13:47:16;13.25;10.75;7.50
68841;PMS5003;55849;48.482;2.332;2022-12-24T13:50:23;8.25;8.25;6.50
68841;PMS5003;55849;48.482;2.332;2022-12-24T13:53:36;11.25;10.00;7.00
68841;PMS5003;55849;48.482;2.332;2022-12-24T13:56:42;7.00;6.25;5.00
68841;PMS5003;55849;48.482;2.332;2022-12-24T13:59:43;14.25;9.00;7.00
68841;PMS5003;55849;48.482;2.332;2022-12-24T14:02:47;7.50;5.75;4.50
68841;PMS5003;55849;48.482;2.332;2022-12-24T14:05:54;6.75;4.50;3.00
68841;PMS5003;55849;48.482;2.332;2022-12-24T14:09:04;15.50;12.75;8.00
68841;PMS5003;55849;48.482;2.332;2022-12-24T14:12:12;9.25;9.25;7.00
68841;PMS5003;55849;48.482;2.332;2022-12-24T14:19:09;10.00;6.50;5.75
68841;PMS5003;55849;48.482;2.332;2022-12-24T14:22:18;50.00;38.50;26.00
68841;PMS5003;55849;48.482;2.332;2022-12-24T14:25:25;20.75;17.00;12.25
68841;PMS5003;55849;48.482;2.332;2022-12-24T14:28:29;6.25;4.00;3.00
68841;PMS5003;55849;48.482;2.332;2022-12-24T14:31:35;14.50;14.50;10.00
68841;PMS5003;55849;48.482;2.332;2022-12-24T14:34:37;17.50;15.00;10.50
68841;PMS5003;55849;48.482;2.332;2022-12-24T14:37:40;10.25;9.00;6.00
68841;PMS5003;55849;48.482;2.332;2022-12-24T14:40:48;10.00;9.00;7.00
68841;PMS5003;55849;48.482;2.332;2022-12-24T14:43:59;9.50;7.00;5.75
68841;PMS5003;55849;48.482;2.332;2022-12-24T14:47:14;14.50;12.25;9.00
68841;PMS5003;55849;48.482;2.332;2022-12-24T14:50:32;15.00;14.50;10.25
68841;PMS5003;55849;48.482;2.332;2022-12-24T14:53:51;36.00;30.25;22.00
68841;PMS5003;55849;48.482;2.332;2022-12-24T15:00:27;38.75;35.50;23.75
68841;PMS5003;55849;48.482;2.332;2022-12-24T15:03:30;33.25;24.50;18.25
68841;PMS5003;55849;48.482;2.332;2022-12-24T15:06:33;27.75;22.25;15.75
68841;PMS5003;55849;48.482;2.332;2022-12-24T15:09:38;20.25;16.25;11.00
68841;PMS5003;55849;48.482;2.332;2022-12-24T15:12:42;15.00;14.00;12.00
68841;PMS5003;55849;48.482;2.332;2022-12-24T15:15:44;20.50;20.50;15.25
68841;PMS5003;55849;48.482;2.332;2022-12-24T15:18:48;14.00;14.00;11.00
68841;PMS5003;55849;48.482;2.332;2022-12-24T15:21:53;9.50;8.00;7.00
68841;PMS5003;55849;48.482;2.332;2022-12-24T15:24:57;5.50;5.50;5.00
68841;PMS5003;55849;48.482;2.332;2022-12-24T15:27:59;8.25;7.00;4.75
68841;PMS5003;55849;48.482;2.332;2022-12-24T15:31:06;3.50;3.50;3.00
68841;PMS5003;55849;48.482;2.332;2022-12-24T15:34:23;56.00;44.00;28.25
68841;PMS5003;55849;48.482;2.332;2022-12-24T15:37:27;44.25;36.50;23.25
68841;PMS5003;55849;48.482;2.332;2022-12-24T15:40:33;26.75;22.50;14.25
68841;PMS5003;55849;48.482;2.332;2022-12-24T15:43:37;9.50;9.25;8.00
68841;PMS5003;55849;48.482;2.332;2022-12-24T15:46:40;11.50;9.00;6.50
68841;PMS5003;55849;48.482;2.332;2022-12-24T15:49:42;17.00;16.00;10.00
68841;PMS5003;55849;48.482;2.332;2022-12-24T15:52:47;12.00;9.75;6.25
68841;PMS5003;55849;48.482;2.332;2022-12-24T15:56:01;13.00;11.25;9.00
68841;PMS5003;55849;48.482;2.332;2022-12-24T15:59:12;41.00;34.00;24.75
68841;PMS5003;55849;48.482;2.332;2022-12-24T16:02:35;23.25;22.00;16.50
68841;PMS5003;55849;48.482;2.332;2022-12-24T16:05:38;20.25;17.00;11.75
68841;PMS5003;55849;48.482;2.332;2022-12-24T16:08:40;22.25;20.25;15.00
68841;PMS5003;55849;48.482;2.332;2022-12-24T16:11:44;51.25;38.00;27.25
68841;PMS5003;55849;48.482;2.332;2022-12-24T16:14:47;48.25;38.25;25.25
68841;PMS5003;55849;48.482;2.332;2022-12-24T16:17:51;48.50;39.00;26.50
68841;PMS5003;55849;48.482;2.332;2022-12-24T16:20:54;38.75;32.00;22.25
68841;PMS5003;55849;48.482;2.332;2022-12-24T16:23:57;48.75;38.25;24.00
68841;PMS5003;55849;48.482;2.332;2022-12-24T16:27:08;78.50;60.50;37.00
68841;PMS5003;55849;48.482;2.332;2022-12-24T16:30:13;84.00;71.75;42.75
68841;PMS5003;55849;48.482;2.332;2022-12-24T16:33:15;91.50;77.25;53.00
68841;PMS5003;55849;48.482;2.332;2022-12-24T16:36:18;83.00;65.25;41.75
68841;PMS5003;55849;48.482;2.332;2022-12-24T16:39:21;91.75;82.00;48.25
68841;PMS5003;55849;48.482;2.332;2022-12-24T16:42:26;85.75;71.50;40.50
68841;PMS5003;55849;48.482;2.332;2022-12-24T16:45:45;52.75;45.25;28.00
68841;PMS5003;55849;48.482;2.332;2022-12-24T16:48:48;56.50;45.75;29.00
68841;PMS5003;55849;48.482;2.332;2022-12-24T16:51:49;72.00;54.50;35.75
68841;PMS5003;55849;48.482;2.332;2022-12-24T16:54:55;75.75;58.00;36.25
68841;PMS5003;55849;48.482;2.332;2022-12-24T16:58:00;73.50;59.50;37.00
68841;PMS5003;55849;48.482;2.332;2022-12-24T17:01:06;65.25;53.00;34.00
68841;PMS5003;55849;48.482;2.332;2022-12-24T17:04:09;53.50;43.00;29.00
68841;PMS5003;55849;48.482;2.332;2022-12-24T17:07:12;54.25;44.00;29.00
68841;PMS5003;55849;48.482;2.332;2022-12-24T17:10:15;60.00;46.00;29.00
68841;PMS5003;55849;48.482;2.332;2022-12-24T17:13:21;52.75;43.50;29.00
68841;PMS5003;55849;48.482;2.332;2022-12-24T17:16:25;54.75;44.00;28.50
68841;PMS5003;55849;48.482;2.332;2022-12-24T17:19:27;56.00;43.25;28.00
68841;PMS5003;55849;48.482;2.332;2022-12-24T17:22:29;49.00;41.00;26.25
68841;PMS5003;55849;48.482;2.332;2022-12-24T17:25:31;48.75;36.75;24.75
68841;PMS5003;55849;48.482;2.332;2022-12-24T17:28:37;50.50;39.75;26.00
68841;PMS5003;55849;48.482;2.332;2022-12-24T17:31:39;46.00;38.50;25.00
68841;PMS5003;55849;48.482;2.332;2022-12-24T17:34:43;43.00;37.00;23.75
68841;PMS5003;55849;48.482;2.332;2022-12-24T17:37:45;36.25;33.25;23.00
68841;PMS5003;55849;48.482;2.332;2022-12-24T17:40:47;39.50;31.75;21.50
68841;PMS5003;55849;48.482;2.332;2022-12-24T17:43:50;38.00;32.75;23.25
68841;PMS5003;55849;48.482;2.332;2022-12-24T17:46:52;33.00;29.75;20.00
68841;PMS5003;55849;48.482;2.332;2022-12-24T17:49:54;33.25;30.50;20.25
68841;PMS5003;55849;48.482;2.332;2022-12-24T17:52:55;31.25;27.50;19.25
68841;PMS5003;55849;48.482;2.332;2022-12-24T17:55:57;33.00;28.25;20.00
68841;PMS5003;55849;48.482;2.332;2022-12-24T17:59:00;33.75;30.25;20.75
68841;PMS5003;55849;48.482;2.332;2022-12-24T18:02:02;35.00;31.25;21.00
68841;PMS5003;55849;48.482;2.332;2022-12-24T18:05:04;35.50;32.25;22.00